createdAt,value
2023-03-03T00:00:04.996Z,46.63
2023-03-03T00:02:38.768Z,40.30
2023-03-03T00:05:10.231Z,41.87
2023-03-03T00:07:39.233Z,41.87
2023-03-03T00:10:10.589Z,44.93
2023-03-03T00:12:48.889Z,44.47
2023-03-03T00:15:21.022Z,54.77
2023-03-03T00:17:53.443Z,37.80
2023-03-03T00:20:35.040Z,40.60
2023-03-03T00:23:18.323Z,46.07
2023-03-03T00:25:52.722Z,47.37
2023-03-03T00:28:28.690Z,47.87
2023-03-03T00:31:01.794Z,42.23
2023-03-03T00:33:34.716Z,45.00
2023-03-03T00:36:31.457Z,54.13
2023-03-03T00:39:26.153Z,46.63
2023-03-03T00:41:57.357Z,42.93
2023-03-03T00:44:41.636Z,36.67
2023-03-03T00:47:31.223Z,57.53
2023-03-03T00:50:34.536Z,51.33
2023-03-03T00:53:06.648Z,47.77
2023-03-03T00:55:36.348Z,45.10
2023-03-03T00:58:06.790Z,49.27
2023-03-03T01:00:36.340Z,44.43
2023-03-03T01:03:08.802Z,50.80
2023-03-03T01:05:38.430Z,33.07
2023-03-03T01:08:08.343Z,51.57
2023-03-03T01:10:42.005Z,44.40
2023-03-03T01:13:24.367Z,44.27
2023-03-03T01:15:57.069Z,37.87
2023-03-03T01:18:31.972Z,47.73
2023-03-03T01:21:02.510Z,41.57
2023-03-03T01:23:31.643Z,44.97
2023-03-03T01:26:03.325Z,52.70
2023-03-03T01:28:37.467Z,49.90
2023-03-03T01:31:09.464Z,45.57
2023-03-03T01:33:40.861Z,43.17
2023-03-03T01:36:10.075Z,50.77
2023-03-03T01:38:51.823Z,39.37
2023-03-03T01:41:23.076Z,34.97
2023-03-03T01:43:56.302Z,47.60
2023-03-03T01:46:57.043Z,38.93
2023-03-03T01:49:37.664Z,49.63
2023-03-03T01:52:17.348Z,45.27
2023-03-03T01:54:52.902Z,39.73
2023-03-03T01:57:26.563Z,32.70
2023-03-03T02:00:06.103Z,40.40
2023-03-03T02:02:38.435Z,43.70
2023-03-03T02:05:16.100Z,40.40
2023-03-03T02:07:48.305Z,50.50
2023-03-03T02:10:23.256Z,37.77
2023-03-03T02:12:57.600Z,41.97
2023-03-03T02:15:32.848Z,45.93
2023-03-03T02:18:06.132Z,52.60
2023-03-03T02:20:50.847Z,44.13
2023-03-03T02:23:33.859Z,38.00
2023-03-03T02:26:19.600Z,46.43
2023-03-03T02:28:54.257Z,42.40
2023-03-03T02:31:27.957Z,38.60
2023-03-03T02:33:57.419Z,42.33
2023-03-03T02:36:38.315Z,38.07
2023-03-03T02:39:13.702Z,37.83
2023-03-03T02:41:48.455Z,37.73
2023-03-03T02:44:20.825Z,40.27
2023-03-03T02:46:55.168Z,37.53
2023-03-03T02:49:31.272Z,30.80
2023-03-03T02:52:00.830Z,51.93
2023-03-03T02:54:34.239Z,36.43
2023-03-03T02:57:14.999Z,46.43
2023-03-03T02:59:46.189Z,31.00
2023-03-03T03:02:23.243Z,36.03
2023-03-03T03:04:55.266Z,35.30
2023-03-03T03:07:25.034Z,38.60
2023-03-03T03:09:57.003Z,44.80
2023-03-03T03:12:35.066Z,38.30
2023-03-03T03:15:14.885Z,42.47
2023-03-03T03:17:47.043Z,41.13
2023-03-03T03:20:21.336Z,47.97
2023-03-03T03:22:55.117Z,40.30
2023-03-03T03:25:35.234Z,39.97
2023-03-03T03:28:06.125Z,45.40
2023-03-03T03:30:36.934Z,44.27
2023-03-03T03:33:15.356Z,57.67
2023-03-03T03:35:47.210Z,43.13
2023-03-03T03:38:21.564Z,51.00
2023-03-03T03:40:54.054Z,40.10
2023-03-03T03:43:43.076Z,42.13
2023-03-03T03:46:13.515Z,45.63
2023-03-03T03:48:46.989Z,35.80
2023-03-03T03:51:17.557Z,46.37
2023-03-03T03:53:55.500Z,42.37
2023-03-03T03:56:24.347Z,35.40
2023-03-03T03:58:58.034Z,53.67
2023-03-03T04:01:29.868Z,50.57
2023-03-03T04:04:07.113Z,43.17
2023-03-03T04:06:36.543Z,46.27
2023-03-03T04:09:06.014Z,40.17
2023-03-03T04:11:34.832Z,39.87
2023-03-03T04:14:05.379Z,43.37
2023-03-03T04:16:39.792Z,42.50
2023-03-03T04:19:11.404Z,46.13
2023-03-03T04:21:46.122Z,45.73
2023-03-03T04:24:16.395Z,34.13
2023-03-03T04:26:55.584Z,35.50
2023-03-03T04:29:32.753Z,30.80
2023-03-03T04:32:03.959Z,45.30
2023-03-03T04:34:42.562Z,42.70
2023-03-03T04:37:12.579Z,48.13
2023-03-03T04:40:01.050Z,36.20
2023-03-03T04:42:34.005Z,38.77
2023-03-03T04:45:20.838Z,37.33
2023-03-03T04:47:51.200Z,32.60
2023-03-03T04:50:25.900Z,36.07
2023-03-03T04:52:54.834Z,31.17
2023-03-03T04:55:32.972Z,26.73
2023-03-03T04:58:04.217Z,35.30
2023-03-03T05:00:36.247Z,30.63
2023-03-03T05:03:07.545Z,28.40
2023-03-03T05:05:39.571Z,33.53
2023-03-03T05:08:16.276Z,41.27
2023-03-03T05:10:56.472Z,34.27
2023-03-03T05:13:28.118Z,24.60
2023-03-03T05:16:04.021Z,39.17
2023-03-03T05:18:37.673Z,36.97
2023-03-03T05:21:06.997Z,44.97
2023-03-03T05:23:39.072Z,29.50
2023-03-03T05:26:07.867Z,44.87
2023-03-03T05:28:45.464Z,35.13
2023-03-03T05:31:18.671Z,46.20
2023-03-03T05:33:52.188Z,37.57
2023-03-03T05:36:24.167Z,34.40
2023-03-03T05:39:01.999Z,35.30
2023-03-03T05:41:30.768Z,35.60
2023-03-03T05:43:59.766Z,37.13
2023-03-03T05:46:30.020Z,28.33
2023-03-03T05:49:01.494Z,29.70
2023-03-03T05:51:30.367Z,24.97
2023-03-03T05:53:59.348Z,27.70
2023-03-03T05:56:30.874Z,24.57
2023-03-03T05:59:10.032Z,25.53
2023-03-03T06:01:41.805Z,16.13
2023-03-03T06:04:10.772Z,37.93
2023-03-03T06:06:44.108Z,15.90
2023-03-03T06:09:14.698Z,14.13
2023-03-03T06:11:49.343Z,20.07
2023-03-03T06:14:21.513Z,31.10
2023-03-03T06:16:52.503Z,14.93
2023-03-03T06:19:24.380Z,33.97
2023-03-03T06:21:58.842Z,29.23
2023-03-03T06:24:34.357Z,33.67
2023-03-03T06:27:05.293Z,25.10
2023-03-03T06:29:37.933Z,35.03
2023-03-03T06:32:14.906Z,38.03
2023-03-03T06:34:50.725Z,24.57
2023-03-03T06:37:22.646Z,41.80
2023-03-03T06:39:55.436Z,25.77
2023-03-03T06:42:27.326Z,41.70
2023-03-03T06:44:58.291Z,42.13
2023-03-03T06:47:30.724Z,40.53
2023-03-03T06:50:04.933Z,35.87
2023-03-03T06:52:38.172Z,34.83
2023-03-03T06:55:13.993Z,37.27
2023-03-03T06:57:45.760Z,34.13
2023-03-03T07:00:25.799Z,46.10
2023-03-03T07:03:11.316Z,49.47
2023-03-03T07:05:46.535Z,31.83
2023-03-03T07:08:18.249Z,29.90
2023-03-03T07:10:49.454Z,28.97
2023-03-03T07:13:45.283Z,37.43
2023-03-03T07:16:27.917Z,36.53
2023-03-03T07:19:04.506Z,24.43
2023-03-03T07:21:36.938Z,26.80
2023-03-03T07:24:27.040Z,32.50
2023-03-03T07:27:02.926Z,25.47
2023-03-03T07:29:38.439Z,27.30
2023-03-03T07:32:26.494Z,32.40
2023-03-03T07:34:59.328Z,39.17
2023-03-03T07:37:33.833Z,28.50
2023-03-03T07:40:09.873Z,26.50
2023-03-03T07:42:47.780Z,29.53
2023-03-03T07:45:30.171Z,44.07
2023-03-03T07:48:21.567Z,33.20
2023-03-03T07:50:55.114Z,23.57
2023-03-03T07:53:30.266Z,36.20
2023-03-03T07:56:01.960Z,32.57
2023-03-03T07:58:39.647Z,31.13
2023-03-03T08:01:41.183Z,37.37
2023-03-03T08:04:24.303Z,38.63
2023-03-03T08:06:57.920Z,25.87
2023-03-03T08:09:53.188Z,30.00
2023-03-03T08:12:48.450Z,19.93
2023-03-03T08:15:28.408Z,37.80
2023-03-03T08:18:10.508Z,34.40
2023-03-03T08:20:52.174Z,23.30
2023-03-03T08:23:24.258Z,37.87
2023-03-03T08:25:59.918Z,29.90
2023-03-03T08:28:29.483Z,34.60
2023-03-03T08:31:13.247Z,28.47
2023-03-03T08:33:55.473Z,25.30
2023-03-03T08:36:27.225Z,27.03
2023-03-03T08:38:58.089Z,28.30
2023-03-03T08:41:27.393Z,23.80
2023-03-03T08:43:56.719Z,26.07
2023-03-03T08:46:28.818Z,26.73
2023-03-03T08:48:58.296Z,23.17
2023-03-03T08:51:27.697Z,28.53
2023-03-03T08:53:58.114Z,24.27
2023-03-03T08:56:36.206Z,25.23
2023-03-03T08:59:17.795Z,14.70
2023-03-03T09:01:51.887Z,11.63
2023-03-03T09:04:22.120Z,18.93
2023-03-03T09:06:54.591Z,17.30
2023-03-03T09:09:30.293Z,19.83
2023-03-03T09:12:05.092Z,20.83
2023-03-03T09:14:36.995Z,15.03
2023-03-03T09:17:28.446Z,19.73
2023-03-03T09:20:04.717Z,14.23
2023-03-03T09:22:40.565Z,19.20
2023-03-03T09:25:25.279Z,14.63
2023-03-03T09:27:57.864Z,18.30
2023-03-03T09:30:39.697Z,19.37
2023-03-03T09:33:50.027Z,19.57
2023-03-03T09:36:27.091Z,20.17
2023-03-03T09:38:57.105Z,13.80
2023-03-03T09:42:08.900Z,25.40
2023-03-03T09:44:55.794Z,12.43
2023-03-03T09:47:40.808Z,20.40
2023-03-03T09:50:20.302Z,16.70
2023-03-03T09:52:58.412Z,11.83
2023-03-03T09:55:39.292Z,24.40
2023-03-03T09:58:45.762Z,19.17
2023-03-03T10:01:48.547Z,19.07
2023-03-03T10:04:26.728Z,24.70
2023-03-03T10:07:02.877Z,14.10
2023-03-03T10:09:59.194Z,17.20
2023-03-03T10:12:33.336Z,15.03
2023-03-03T10:15:34.085Z,12.83
2023-03-03T10:18:16.265Z,16.53
2023-03-03T10:21:03.473Z,28.40
2023-03-03T10:23:58.908Z,12.37
2023-03-03T10:27:10.619Z,13.50
2023-03-03T10:29:51.987Z,15.73
2023-03-03T10:32:38.256Z,20.83
2023-03-03T10:35:32.272Z,13.67
2023-03-03T10:38:18.044Z,16.53
2023-03-03T10:40:56.351Z,15.43
2023-03-03T10:43:48.696Z,20.87
2023-03-03T10:46:47.572Z,19.47
2023-03-03T10:49:27.013Z,18.70
2023-03-03T10:52:08.700Z,14.60
2023-03-03T10:54:53.938Z,12.13
2023-03-03T10:57:32.660Z,23.57
2023-03-03T11:00:17.935Z,23.97
2023-03-03T11:03:07.119Z,16.77
2023-03-03T11:05:44.629Z,10.37
2023-03-03T11:08:18.316Z,16.40
2023-03-03T11:10:53.820Z,13.53
2023-03-03T11:13:35.610Z,22.70
2023-03-03T11:16:32.038Z,18.60
2023-03-03T11:19:27.782Z,15.77
2023-03-03T11:22:08.180Z,15.47
2023-03-03T11:24:52.449Z,24.73
2023-03-03T11:27:40.161Z,19.90
2023-03-03T11:30:30.146Z,15.20
2023-03-03T11:33:07.509Z,14.93
2023-03-03T11:35:55.845Z,16.53
2023-03-03T11:38:53.354Z,22.93
2023-03-03T11:41:41.828Z,21.00
2023-03-03T11:44:22.521Z,15.33
2023-03-03T11:46:55.035Z,12.53
2023-03-03T11:49:30.363Z,19.87
2023-03-03T11:52:12.644Z,13.27
2023-03-03T11:54:49.662Z,13.57
2023-03-03T11:57:29.790Z,20.67
2023-03-03T12:00:09.509Z,17.60
2023-03-03T12:03:03.793Z,16.37
2023-03-03T12:05:44.661Z,14.30
2023-03-03T12:08:28.037Z,11.07
2023-03-03T12:11:05.730Z,15.50
2023-03-03T12:13:48.718Z,11.90
2023-03-03T12:16:27.751Z,14.80
2023-03-03T12:19:16.100Z,16.30
2023-03-03T12:22:04.539Z,15.83
2023-03-03T12:24:48.651Z,12.23
2023-03-03T12:27:29.990Z,12.60
2023-03-03T12:30:13.379Z,12.83
2023-03-03T12:33:00.438Z,12.63
2023-03-03T12:35:42.705Z,17.30
2023-03-03T12:38:21.503Z,17.50
2023-03-03T12:40:58.555Z,10.40
2023-03-03T12:43:49.690Z,16.67
2023-03-03T12:46:29.727Z,16.43
2023-03-03T12:49:00.965Z,12.37
2023-03-03T12:51:53.515Z,16.97
2023-03-03T12:54:46.984Z,16.73
2023-03-03T12:57:31.559Z,16.17
2023-03-03T13:00:25.811Z,12.27
2023-03-03T13:03:07.865Z,8.97
2023-03-03T13:05:54.318Z,10.90
2023-03-03T13:08:39.865Z,18.87
2023-03-03T13:11:30.594Z,9.57
2023-03-03T13:14:11.803Z,13.20
2023-03-03T13:16:53.194Z,11.60
2023-03-03T13:19:30.867Z,13.40
2023-03-03T13:22:08.522Z,11.93
2023-03-03T13:24:44.711Z,9.83
2023-03-03T13:27:20.623Z,14.80
2023-03-03T13:29:59.488Z,20.57
2023-03-03T13:32:38.461Z,11.20
2023-03-03T13:35:13.758Z,16.20
2023-03-03T13:37:51.660Z,20.03
2023-03-03T13:40:27.157Z,16.97
2023-03-03T13:43:02.822Z,11.70
2023-03-03T13:45:38.847Z,10.97
2023-03-03T13:48:29.865Z,12.37
2023-03-03T13:51:05.772Z,11.27
2023-03-03T13:53:54.616Z,12.13
2023-03-03T13:56:47.447Z,23.37
2023-03-03T13:59:25.847Z,13.90
2023-03-03T14:02:04.802Z,11.43
2023-03-03T14:04:48.554Z,10.87
2023-03-03T14:07:31.177Z,15.83
2023-03-03T14:10:10.119Z,17.10
2023-03-03T14:12:48.954Z,18.73
2023-03-03T14:15:26.548Z,20.97
2023-03-03T14:18:23.204Z,14.73
2023-03-03T14:21:09.524Z,16.03
2023-03-03T14:23:57.675Z,12.73
2023-03-03T14:26:27.302Z,20.47
2023-03-03T14:29:22.105Z,9.40
2023-03-03T14:31:54.371Z,19.87
2023-03-03T14:34:39.650Z,16.63
2023-03-03T14:37:29.920Z,13.97
2023-03-03T14:40:17.572Z,13.20
2023-03-03T14:42:56.971Z,16.97
2023-03-03T14:45:36.199Z,20.73
2023-03-03T14:48:16.487Z,18.57
2023-03-03T14:50:52.373Z,12.07
2023-03-03T14:53:35.333Z,22.83
2023-03-03T14:56:22.588Z,15.37
2023-03-03T14:58:52.783Z,10.63
2023-03-03T15:01:32.817Z,17.40
2023-03-03T15:04:03.702Z,10.70
2023-03-03T15:06:41.428Z,13.30
2023-03-03T15:09:32.775Z,12.40
2023-03-03T15:12:02.860Z,11.67
2023-03-03T15:14:36.547Z,10.53
2023-03-03T15:17:27.587Z,12.33
2023-03-03T15:20:23.726Z,15.20
2023-03-03T15:22:55.947Z,19.23
2023-03-03T15:25:43.478Z,21.70
2023-03-03T15:28:27.954Z,13.57
2023-03-03T15:31:02.248Z,17.87
2023-03-03T15:33:41.833Z,19.80
2023-03-03T15:36:16.003Z,15.57
2023-03-03T15:38:55.826Z,13.83
2023-03-03T15:41:45.478Z,19.23
2023-03-03T15:44:27.511Z,11.93
2023-03-03T15:47:12.443Z,13.80
2023-03-03T15:50:09.928Z,18.73
2023-03-03T15:52:49.557Z,15.53
2023-03-03T15:55:33.917Z,13.03
2023-03-03T15:58:19.405Z,15.90
2023-03-03T16:01:04.189Z,10.00
2023-03-03T16:03:37.474Z,17.50
2023-03-03T16:06:12.183Z,15.83
2023-03-03T16:08:49.732Z,11.47
2023-03-03T16:11:25.091Z,16.63
2023-03-03T16:14:05.146Z,15.53
2023-03-03T16:16:43.029Z,15.73
2023-03-03T16:19:30.986Z,13.10
2023-03-03T16:22:15.981Z,12.47
2023-03-03T16:24:53.924Z,15.43
2023-03-03T16:27:29.102Z,17.33
2023-03-03T16:30:12.960Z,11.93
2023-03-03T16:32:47.568Z,12.10
2023-03-03T16:35:23.669Z,24.23
2023-03-03T16:38:02.644Z,10.33
2023-03-03T16:40:34.673Z,11.20
2023-03-03T16:43:14.475Z,7.30
2023-03-03T16:45:44.692Z,11.23
2023-03-03T16:48:22.673Z,21.83
2023-03-03T16:51:17.322Z,22.90
2023-03-03T16:53:54.213Z,11.27
2023-03-03T16:56:24.854Z,18.97
2023-03-03T16:59:20.669Z,11.47
2023-03-03T17:01:57.618Z,25.90
2023-03-03T17:04:41.354Z,20.60
2023-03-03T17:07:20.333Z,13.90
2023-03-03T17:10:06.938Z,10.70
2023-03-03T17:12:49.884Z,13.23
2023-03-03T17:15:33.382Z,21.77
2023-03-03T17:18:13.555Z,19.23
2023-03-03T17:20:49.707Z,13.27
2023-03-03T17:23:41.477Z,13.50
2023-03-03T17:26:39.736Z,16.23
2023-03-03T17:29:25.250Z,15.40
2023-03-03T17:32:01.098Z,22.63
2023-03-03T17:34:44.747Z,33.03
2023-03-03T17:37:26.170Z,14.50
2023-03-03T17:40:06.840Z,15.53
2023-03-03T17:42:43.667Z,23.57
2023-03-03T17:45:14.062Z,22.80
2023-03-03T17:47:54.581Z,22.17
2023-03-03T17:50:57.254Z,23.57
2023-03-03T17:53:55.002Z,24.13
2023-03-03T17:56:29.081Z,31.53
2023-03-03T17:59:25.193Z,18.63
2023-03-03T18:02:41.754Z,16.30
2023-03-03T18:05:38.940Z,16.13
2023-03-03T18:08:28.810Z,33.83
2023-03-03T18:11:35.516Z,20.70
2023-03-03T18:14:39.082Z,23.90
2023-03-03T18:17:28.985Z,12.53
2023-03-03T18:20:12.540Z,18.87
2023-03-03T18:22:46.934Z,22.80
2023-03-03T18:25:17.754Z,13.97
2023-03-03T18:27:48.398Z,23.67
2023-03-03T18:30:25.252Z,24.90
2023-03-03T18:33:17.509Z,20.43
2023-03-03T18:35:51.457Z,21.27
2023-03-03T18:38:39.571Z,18.50
2023-03-03T18:41:13.021Z,23.53
2023-03-03T18:43:57.986Z,23.33
2023-03-03T18:46:53.152Z,25.47
2023-03-03T18:49:49.843Z,27.43
2023-03-03T18:52:23.115Z,18.37
2023-03-03T18:55:25.477Z,16.43
2023-03-03T18:58:37.040Z,21.57
2023-03-03T19:01:44.009Z,23.37
2023-03-03T19:04:21.952Z,18.57
2023-03-03T19:07:26.567Z,22.57
2023-03-03T19:10:01.418Z,18.57
2023-03-03T19:13:02.414Z,29.33
2023-03-03T19:15:54.636Z,21.27
2023-03-03T19:18:31.491Z,33.37
2023-03-03T19:21:03.252Z,23.30
2023-03-03T19:23:56.625Z,28.90
2023-03-03T19:26:59.943Z,25.13
2023-03-03T19:30:06.393Z,36.23
2023-03-03T19:33:10.163Z,35.20
2023-03-03T19:35:46.067Z,44.80
2023-03-03T19:38:28.010Z,21.40
2023-03-03T19:41:09.139Z,28.53
2023-03-03T19:43:50.191Z,28.92
2023-03-03T19:46:37.501Z,17.67
2023-03-03T19:49:15.262Z,26.87
2023-03-03T19:51:55.475Z,21.33
2023-03-03T19:54:45.938Z,32.07
2023-03-03T19:57:24.355Z,28.57
2023-03-03T20:00:00.414Z,28.27
2023-03-03T20:02:43.399Z,19.40
2023-03-03T20:05:21.973Z,22.70
2023-03-03T20:08:02.266Z,15.23
2023-03-03T20:10:40.264Z,25.87
2023-03-03T20:13:22.539Z,28.93
2023-03-03T20:15:58.898Z,20.90
2023-03-03T20:18:52.244Z,32.70
2023-03-03T20:21:32.257Z,30.17
2023-03-03T20:24:21.645Z,19.93
2023-03-03T20:26:59.143Z,14.37
2023-03-03T20:29:54.427Z,26.67
2023-03-03T20:32:40.587Z,18.27
2023-03-03T20:35:25.125Z,23.63
2023-03-03T20:38:08.231Z,12.63
2023-03-03T20:40:47.574Z,39.80
2023-03-03T20:43:29.009Z,26.43
2023-03-03T20:46:14.470Z,36.73
2023-03-03T20:49:09.997Z,29.27
2023-03-03T20:51:44.824Z,26.70
2023-03-03T20:54:22.247Z,29.67
2023-03-03T20:56:56.276Z,25.83
2023-03-03T20:59:33.447Z,21.47
2023-03-03T21:02:10.446Z,32.70
2023-03-03T21:04:39.516Z,50.10
2023-03-03T21:07:29.037Z,21.83
2023-03-03T21:10:15.005Z,14.17
2023-03-03T21:12:44.149Z,25.73
2023-03-03T21:15:33.664Z,19.50
2023-03-03T21:18:40.064Z,19.23
2023-03-03T21:21:10.371Z,25.10
2023-03-03T21:23:45.689Z,34.07
2023-03-03T21:26:50.885Z,18.07
2023-03-03T21:29:23.365Z,20.97
2023-03-03T21:31:54.421Z,19.73
2023-03-03T21:34:29.837Z,21.27
2023-03-03T21:37:02.634Z,18.03
2023-03-03T21:39:38.836Z,24.67
2023-03-03T21:42:12.131Z,20.27
2023-03-03T21:44:44.289Z,27.10
2023-03-03T21:47:15.008Z,20.93
2023-03-03T21:49:47.912Z,38.97
2023-03-03T21:52:21.084Z,25.83
2023-03-03T21:54:55.503Z,24.67
2023-03-03T21:57:25.177Z,25.77
2023-03-03T21:59:54.510Z,19.73
2023-03-03T22:02:26.085Z,21.33
2023-03-03T22:04:57.796Z,24.87
2023-03-03T22:07:28.664Z,23.73
2023-03-03T22:10:00.306Z,21.40
2023-03-03T22:12:29.137Z,32.00
2023-03-03T22:14:57.973Z,32.37
2023-03-03T22:17:26.912Z,26.50
2023-03-03T22:19:56.020Z,19.77
2023-03-03T22:22:27.022Z,17.30
2023-03-03T22:24:55.773Z,16.60
2023-03-03T22:27:26.114Z,23.33
2023-03-03T22:29:57.713Z,17.63
2023-03-03T22:32:26.756Z,23.53
2023-03-03T22:34:55.670Z,17.80
2023-03-03T22:37:26.532Z,24.07
2023-03-03T22:39:55.393Z,20.07
2023-03-03T22:42:34.489Z,27.23
2023-03-03T22:45:05.434Z,28.43
2023-03-03T22:47:34.238Z,27.50
2023-03-03T22:50:05.043Z,29.87
2023-03-03T22:52:36.934Z,23.03
2023-03-03T22:55:06.383Z,20.50
2023-03-03T22:57:36.645Z,35.37
2023-03-03T23:00:10.631Z,17.87
2023-03-03T23:02:42.841Z,33.47
2023-03-03T23:05:13.862Z,23.03
2023-03-03T23:07:44.793Z,32.00
2023-03-03T23:10:15.454Z,26.63
2023-03-03T23:12:48.834Z,20.60
2023-03-03T23:15:18.525Z,22.77
2023-03-03T23:17:49.307Z,22.60
2023-03-03T23:20:24.181Z,19.07
2023-03-03T23:22:54.997Z,18.27
2023-03-03T23:25:24.499Z,23.00
2023-03-03T23:27:55.809Z,25.97
2023-03-03T23:30:25.155Z,18.63
2023-03-03T23:32:54.348Z,18.63
2023-03-03T23:35:23.771Z,27.57
2023-03-03T23:37:53.133Z,26.13
2023-03-03T23:40:22.076Z,28.73
2023-03-03T23:42:51.431Z,22.30
2023-03-03T23:45:22.007Z,26.27
2023-03-03T23:47:52.675Z,27.93
2023-03-03T23:50:24.250Z,20.73
2023-03-03T23:52:54.680Z,21.93
2023-03-03T23:55:28.726Z,15.00
2023-03-03T23:57:57.586Z,18.23
